Time;durP1;ratioP1;P1;durP2;ratioP2;P2;SDS_P1;SDS_P2;PMS_P1;PMS_P2;Temp;Humidity;BMP_temperature;BMP_pressure;BME280_temperature;BME280_humidity;BME280_pressure;Samples;Min_cycle;Max_cycle;Signal;HPM_P1;HPM_P2
2022/05/16 00:01:34;;;;;;;16.17;7.53;;;9.60;99.90;;;;;;4972422;28;20043;-51
2022/05/16 00:04:00;;;;;;;20.70;6.90;;;9.70;99.90;;;;;;4972167;28;20023;-52
2022/05/16 00:06:25;;;;;;;11.63;7.07;;;9.70;99.90;;;;;;4972520;28;20106;-51
2022/05/16 00:08:53;;;;;;;15.55;6.13;;;9.60;99.90;;;;;;4972118;28;20030;-51
2022/05/16 00:11:19;;;;;;;12.50;5.75;;;9.70;99.90;;;;;;4954941;28;20114;-52
2022/05/16 00:13:45;;;;;;;12.50;6.30;;;9.60;99.90;;;;;;4957733;28;20177;-52
2022/05/16 00:16:10;;;;;;;14.43;6.35;;;9.50;99.90;;;;;;4953018;29;20035;-52
2022/05/16 00:18:36;;;;;;;14.77;6.55;;;9.30;99.90;;;;;;4952521;29;20043;-50
2022/05/16 00:21:02;;;;;;;12.65;6.25;;;9.40;99.90;;;;;;4952498;29;20016;-51
2022/05/16 00:23:28;;;;;;;16.02;6.72;;;9.40;99.90;;;;;;4952420;29;20491;-50
2022/05/16 00:25:53;;;;;;;11.35;5.32;;;9.40;99.90;;;;;;4952739;29;20031;-51
2022/05/16 00:28:19;;;;;;;12.32;6.20;;;9.40;99.90;;;;;;4952421;28;20745;-52
2022/05/16 00:30:44;;;;;;;14.77;6.07;;;9.50;99.90;;;;;;4952552;29;20027;-52
2022/05/16 00:33:10;;;;;;;15.90;6.35;;;9.40;99.90;;;;;;4952196;29;20058;-51
2022/05/16 00:35:36;;;;;;;10.93;6.40;;;9.50;99.90;;;;;;4934578;29;20027;-52
2022/05/16 00:38:02;;;;;;;16.30;6.32;;;9.40;99.90;;;;;;4952281;29;20045;-51
2022/05/16 00:40:27;;;;;;;12.25;6.22;;;9.40;99.90;;;;;;4952080;29;20047;-52
2022/05/16 00:43:05;;;;;;;12.10;6.68;;;9.40;99.90;;;;;;4956568;28;20055;-51
2022/05/16 00:45:31;;;;;;;13.25;5.80;;;9.20;99.90;;;;;;4971769;28;20138;-52
2022/05/16 00:47:57;;;;;;;14.70;6.15;;;9.30;99.90;;;;;;4971360;28;20113;-52
2022/05/16 00:50:23;;;;;;;10.90;5.57;;;9.30;99.90;;;;;;4971222;28;20041;-51
2022/05/16 00:52:51;;;;;;;16.27;7.40;;;9.20;99.90;;;;;;4971463;28;20031;-52
2022/05/16 00:55:22;;;;;;;10.15;5.32;;;9.10;99.90;;;;;;4971674;28;20046;-51
2022/05/16 00:57:52;;;;;;;15.45;6.57;;;9.10;99.90;;;;;;4970970;28;20084;-52
2022/05/16 01:00:26;;;;;;;11.90;5.43;;;9.00;99.90;;;;;;4971338;28;20110;-51
2022/05/16 01:05:45;;;;;;;11.90;5.43;;;8.90;99.90;;;;;;4971394;28;20026;-52
2022/05/16 01:08:16;;;;;;;14.73;5.53;;;8.90;99.90;;;;;;4970806;28;20026;-50
2022/05/16 01:10:42;;;;;;;12.82;6.13;;;8.80;99.90;;;;;;4971197;28;20030;-52
2022/05/16 01:13:08;;;;;;;11.27;5.55;;;8.70;99.90;;;;;;4970957;28;20034;-52
2022/05/16 01:15:40;;;;;;;13.23;5.50;;;8.70;99.90;;;;;;4971248;28;20066;-52
2022/05/16 01:18:08;;;;;;;12.82;5.65;;;8.60;99.90;;;;;;4969517;28;20041;-52
2022/05/16 01:21:00;;;;;;;11.35;5.35;;;8.50;99.90;;;;;;4971189;28;20026;-52
2022/05/16 01:23:28;;;;;;;11.63;5.30;;;8.50;99.90;;;;;;4970997;28;20054;-52
2022/05/16 01:25:54;;;;;;;13.18;5.28;;;8.60;99.90;;;;;;4971082;28;20057;-57
2022/05/16 01:28:24;;;;;;;9.23;4.30;;;8.70;99.90;;;;;;4970726;28;20023;-52
2022/05/16 01:30:51;;;;;;;10.63;5.25;;;8.70;99.90;;;;;;4971082;28;20031;-52
2022/05/16 01:33:18;;;;;;;9.52;4.18;;;8.60;99.90;;;;;;4970961;28;20023;-51
2022/05/16 01:35:44;;;;;;;;;;;8.50;99.90;;;;;;4971685;28;20031;-52
2022/05/16 01:38:22;;;;;;;11.82;6.13;;;8.50;99.90;;;;;;4970470;28;20392;-51
2022/05/16 01:41:03;;;;;;;14.70;7.38;;;8.50;99.90;;;;;;4970779;28;20026;-52
2022/05/16 01:43:36;;;;;;;16.27;6.55;;;8.50;99.90;;;;;;4970554;28;20034;-51
2022/05/16 01:46:03;;;;;;;14.60;7.47;;;8.40;99.90;;;;;;4970567;28;20074;-52
2022/05/16 01:48:30;;;;;;;;;;;8.50;99.90;;;;;;4974861;28;20023;-51
2022/05/16 01:51:09;;;;;;;14.35;6.57;;;8.40;99.90;;;;;;4989469;28;19906;-52
2022/05/16 01:53:35;;;;;;;11.98;5.50;;;8.50;99.90;;;;;;4974392;28;20031;-52
2022/05/16 01:56:01;;;;;;;12.63;6.60;;;8.40;99.90;;;;;;4974569;28;20093;-51
2022/05/16 01:58:27;;;;;;;12.30;6.18;;;8.40;99.90;;;;;;4974702;28;20462;-51
2022/05/16 02:00:53;;;;;;;12.63;6.57;;;8.40;99.90;;;;;;4974565;28;20050;-52
2022/05/16 02:03:19;;;;;;;13.98;6.38;;;8.30;99.90;;;;;;4974587;28;20042;-51
2022/05/16 02:05:46;;;;;;;11.20;6.53;;;8.30;99.90;;;;;;4957069;28;20503;-52
2022/05/16 02:08:13;;;;;;;12.27;5.97;;;8.30;99.90;;;;;;4974512;28;20429;-51
2022/05/16 02:10:40;;;;;;;8.18;4.45;;;8.10;99.90;;;;;;4974531;28;20061;-51
2022/05/16 02:13:06;;;;;;;12.75;5.72;;;8.20;99.90;;;;;;4973884;28;20058;-52
2022/05/16 02:15:33;;;;;;;11.98;5.43;;;8.10;99.90;;;;;;4974531;28;20065;-51
2022/05/16 02:18:00;;;;;;;11.07;5.32;;;8.20;99.90;;;;;;4974020;28;20130;-51
2022/05/16 02:20:27;;;;;;;11.63;5.03;;;8.20;99.90;;;;;;4973965;28;20473;-52
2022/05/16 02:25:40;;;;;;;12.20;4.97;;;8.00;99.90;;;;;;4974756;28;20421;-52
2022/05/16 02:28:09;;;;;;;9.43;4.25;;;8.00;99.90;;;;;;4974226;28;20023;-52
2022/05/16 02:30:36;;;;;;;10.40;4.78;;;8.00;99.90;;;;;;4973873;28;20394;-52
2022/05/16 02:33:03;;;;;;;12.40;4.82;;;8.10;99.90;;;;;;4973514;28;20027;-52
2022/05/16 02:35:30;;;;;;;12.95;5.10;;;8.00;99.90;;;;;;4974167;28;20034;-51
2022/05/16 02:37:58;;;;;;;13.68;5.63;;;7.90;99.90;;;;;;4973527;28;20053;-52
2022/05/16 02:40:26;;;;;;;11.35;5.90;;;7.90;99.90;;;;;;4973667;28;20039;-51
2022/05/16 02:42:52;;;;;;;;;;;7.90;99.90;;;;;;4973651;28;20038;-52
2022/05/16 02:45:18;;;;;;;15.07;5.90;;;7.80;99.90;;;;;;4973211;28;19917;-52
2022/05/16 02:47:43;;;;;;;10.05;5.70;;;7.90;99.90;;;;;;4973579;28;20047;-51
2022/05/16 02:50:09;;;;;;;12.00;6.03;;;7.90;99.90;;;;;;4972093;28;20039;-51
2022/05/16 02:52:35;;;;;;;17.70;6.82;;;7.80;99.90;;;;;;4958507;28;20038;-51
2022/05/16 02:55:01;;;;;;;14.43;6.70;;;7.80;99.90;;;;;;4954295;29;20031;-52
2022/05/16 02:57:28;;;;;;;13.25;6.10;;;7.70;99.90;;;;;;4953999;29;20039;-52
2022/05/16 02:59:55;;;;;;;12.48;6.63;;;7.70;99.90;;;;;;4952911;28;20027;-51
2022/05/16 03:02:21;;;;;;;14.47;7.00;;;7.70;99.90;;;;;;4953264;29;20487;-52
2022/05/16 03:04:47;;;;;;;14.05;6.13;;;7.70;99.90;;;;;;4953994;29;20110;-52
2022/05/16 03:07:13;;;;;;;13.38;5.75;;;7.80;99.90;;;;;;4953700;29;20053;-51
2022/05/16 03:09:39;;;;;;;12.63;5.53;;;7.80;99.90;;;;;;4953729;29;20047;-52
2022/05/16 03:12:05;;;;;;;12.13;5.25;;;7.80;99.90;;;;;;4953257;29;20114;-51
2022/05/16 03:14:31;;;;;;;15.32;5.75;;;7.90;99.90;;;;;;4953395;29;20027;-51
2022/05/16 03:16:57;;;;;;;8.95;4.63;;;7.90;99.90;;;;;;4953523;29;20130;-51
2022/05/16 03:19:22;;;;;;;10.05;5.65;;;7.90;99.90;;;;;;4953840;29;20114;-51
2022/05/16 03:21:48;;;;;;;10.88;4.65;;;7.80;99.90;;;;;;4953098;29;20042;-52
2022/05/16 03:24:14;;;;;;;10.85;5.03;;;7.80;99.90;;;;;;4953028;29;20474;-52
2022/05/16 03:26:40;;;;;;;10.23;5.13;;;7.70;99.90;;;;;;4953486;29;20039;-52
2022/05/16 03:29:06;;;;;;;14.45;5.03;;;7.80;99.90;;;;;;4953135;29;20027;-51
2022/05/16 03:31:35;;;;;;;11.93;5.03;;;7.70;99.90;;;;;;4953398;29;20098;-51
2022/05/16 03:34:01;;;;;;;12.85;5.57;;;7.80;99.90;;;;;;4953255;29;20027;-52
2022/05/16 03:36:27;;;;;;;12.07;5.50;;;7.70;99.90;;;;;;4953102;29;20039;-51
2022/05/16 03:41:37;;;;;;;13.77;6.20;;;7.60;99.90;;;;;;4952850;29;20034;-51
2022/05/16 03:44:03;;;;;;;12.85;6.00;;;7.70;99.90;;;;;;4960744;28;20031;-51
2022/05/16 03:46:28;;;;;;;11.27;5.75;;;7.80;99.90;;;;;;4972496;28;20062;-52
2022/05/16 03:48:54;;;;;;;12.80;4.90;;;7.80;99.90;;;;;;4972175;28;20313;-52
2022/05/16 03:51:20;;;;;;;11.07;4.95;;;7.80;99.90;;;;;;4972287;28;20481;-52
2022/05/16 03:53:46;;;;;;;10.88;4.55;;;7.70;99.90;;;;;;4972162;28;20085;-52
2022/05/16 03:56:16;;;;;;;8.93;5.00;;;7.60;99.90;;;;;;4972070;28;20027;-51
2022/05/16 03:58:42;;;;;;;10.77;4.95;;;7.60;99.90;;;;;;4971567;28;20081;-51
2022/05/16 04:01:08;;;;;;;9.13;4.65;;;7.70;99.90;;;;;;4972536;28;20030;-52
2022/05/16 04:03:34;;;;;;;11.10;5.45;;;7.80;99.90;;;;;;4971645;28;20034;-52
2022/05/16 04:06:00;;;;;;;12.10;6.07;;;7.90;99.90;;;;;;4971968;28;20030;-52
2022/05/16 04:08:28;;;;;;;18.63;5.88;;;7.80;99.90;;;;;;4971228;28;20027;-52
2022/05/16 04:10:54;;;;;;;12.70;5.43;;;7.80;99.90;;;;;;4971240;28;20035;-53
2022/05/16 04:13:20;;;;;;;13.13;5.50;;;7.80;99.90;;;;;;4971214;28;20027;-52
2022/05/16 04:15:46;;;;;;;9.43;4.97;;;8.00;99.90;;;;;;4971161;28;20433;-52
2022/05/16 04:18:12;;;;;;;9.52;5.05;;;8.10;99.90;;;;;;4971231;28;20498;-51
2022/05/16 04:20:37;;;;;;;11.13;4.90;;;8.20;99.90;;;;;;4963261;28;20051;-52
2022/05/16 04:23:03;;;;;;;10.80;5.63;;;8.20;99.90;;;;;;4951657;29;20027;-51
2022/05/16 04:25:31;;;;;;;11.57;4.82;;;8.30;99.90;;;;;;4952240;29;20034;-51
2022/05/16 04:27:56;;;;;;;10.88;5.10;;;8.50;99.90;;;;;;4951690;29;20062;-51
2022/05/16 04:30:22;;;;;;;10.00;5.20;;;8.40;99.90;;;;;;4952420;29;20023;-52
2022/05/16 04:32:48;;;;;;;15.27;6.45;;;8.40;99.90;;;;;;4951844;29;20027;-52
2022/05/16 04:35:13;;;;;;;14.88;7.00;;;8.30;99.90;;;;;;4951267;29;20031;-51
2022/05/16 04:37:39;;;;;;;15.68;7.63;;;8.40;99.90;;;;;;4951919;29;20047;-52
2022/05/16 04:40:08;;;;;;;10.90;6.53;;;8.50;99.90;;;;;;4952516;29;20107;-52
2022/05/16 04:42:40;;;;;;;14.48;7.22;;;8.60;99.90;;;;;;4951601;29;20066;-52
2022/05/16 04:45:13;;;;;;;12.80;7.00;;;8.70;99.90;;;;;;4967127;28;20825;-52
2022/05/16 04:47:38;;;;;;;16.63;7.32;;;8.90;99.90;;;;;;4970495;28;20118;-52
2022/05/16 04:50:05;;;;;;;18.52;7.40;;;9.10;99.90;;;;;;4970166;28;20101;-52
2022/05/16 04:52:32;;;;;;;16.92;6.40;;;9.20;99.90;;;;;;4969854;28;20101;-52
2022/05/16 04:54:59;;;;;;;11.93;6.10;;;9.40;99.90;;;;;;4970730;28;20175;-51
2022/05/16 04:57:24;;;;;;;14.20;5.75;;;9.50;99.90;;;;;;4970224;28;20034;-52
2022/05/16 04:59:50;;;;;;;11.82;5.95;;;9.60;99.90;;;;;;4970132;28;20035;-52
2022/05/16 05:02:17;;;;;;;11.93;5.28;;;9.70;99.90;;;;;;4971005;28;20034;-52
2022/05/16 05:04:44;;;;;;;22.88;7.80;;;9.80;99.90;;;;;;4965454;28;20542;-52
2022/05/16 05:07:09;;;;;;;11.88;6.05;;;10.00;99.90;;;;;;4951513;29;20036;-51
2022/05/16 05:14:31;;;;;;;17.50;8.00;;;10.00;99.90;;;;;;4951681;29;20031;-52
2022/05/16 05:15:08;;;;;;;11.75;5.88;;;10.20;99.90;;;;;;4951840;29;20501;-52
2022/05/16 05:17:34;;;;;;;12.32;5.82;;;10.40;99.90;;;;;;4950749;29;20038;-52
2022/05/16 05:20:01;;;;;;;16.10;6.35;;;10.50;99.90;;;;;;4951669;29;20027;-52
2022/05/16 05:22:26;;;;;;;10.95;5.32;;;10.60;99.90;;;;;;4950945;28;20036;-53
2022/05/16 05:24:52;;;;;;;16.20;5.60;;;10.80;99.90;;;;;;4951276;29;20054;-52
2022/05/16 05:27:18;;;;;;;9.68;6.05;;;10.90;99.90;;;;;;4951579;29;20031;-52
2022/05/16 05:29:43;;;;;;;16.00;6.88;;;11.00;99.90;;;;;;4951265;29;20745;-51
2022/05/16 05:32:09;;;;;;;13.25;6.38;;;11.10;99.90;;;;;;4951062;29;20035;-51
2022/05/16 05:34:38;;;;;;;14.85;5.68;;;11.30;99.90;;;;;;4950931;29;20050;-51
2022/05/16 05:37:04;;;;;;;14.38;6.57;;;11.40;99.90;;;;;;4951359;29;20043;-50
2022/05/16 05:39:31;;;;;;;15.35;8.00;;;11.50;99.90;;;;;;4950863;29;20042;-51
2022/05/16 05:41:58;;;;;;;13.07;6.07;;;11.60;99.90;;;;;;4951544;29;20219;-51
2022/05/16 05:44:24;;;;;;;14.93;6.67;;;11.70;99.90;;;;;;4956835;28;20027;-51
2022/05/16 05:46:49;;;;;;;33.00;8.27;;;11.80;99.90;;;;;;4970453;28;20130;-51
2022/05/16 05:49:15;;;;;;;12.35;6.18;;;12.00;99.90;;;;;;4970562;28;20110;-51
2022/05/16 05:51:41;;;;;;;13.43;5.53;;;12.10;99.90;;;;;;4958238;28;20066;-51
2022/05/16 05:54:07;;;;;;;19.73;6.78;;;12.30;99.90;;;;;;4950732;29;20501;-50
2022/05/16 05:56:33;;;;;;;15.57;6.72;;;12.40;99.90;;;;;;4951101;29;20032;-51
2022/05/16 05:58:59;;;;;;;13.93;6.35;;;12.50;99.90;;;;;;4951127;29;20049;-51
2022/05/16 06:01:26;;;;;;;13.55;7.55;;;12.70;99.90;;;;;;4951072;29;20110;-51
2022/05/16 06:03:53;;;;;;;15.35;6.45;;;12.80;99.90;;;;;;4950577;29;20086;-50
2022/05/16 06:06:19;;;;;;;12.88;6.75;;;12.80;99.90;;;;;;4951396;29;20050;-52
2022/05/16 06:08:45;;;;;;;14.77;6.55;;;13.00;99.90;;;;;;4950848;29;20027;-50
2022/05/16 06:11:10;;;;;;;14.07;6.53;;;13.10;99.90;;;;;;4950987;29;20038;-51
2022/05/16 06:13:38;;;;;;;17.55;7.75;;;13.40;99.90;;;;;;4950562;29;20031;-51
2022/05/16 06:16:05;;;;;;;15.30;6.68;;;13.60;99.90;;;;;;4951132;29;20050;-50
2022/05/16 06:18:31;;;;;;;16.15;6.63;;;13.70;99.90;;;;;;4950960;29;20035;-51
2022/05/16 06:20:56;;;;;;;14.48;6.57;;;13.80;99.90;;;;;;4950872;29;20085;-51
2022/05/16 06:23:22;;;;;;;16.30;6.78;;;14.00;99.90;;;;;;4950650;29;20114;-51
2022/05/16 06:25:48;;;;;;;14.40;5.97;;;14.00;99.90;;;;;;4950827;29;20571;-51
2022/05/16 06:28:17;;;;;;;12.27;6.35;;;14.10;99.90;;;;;;4950643;29;20497;-52
2022/05/16 06:30:46;;;;;;;12.05;5.60;;;14.20;99.90;;;;;;4950695;29;20482;-51
2022/05/16 06:33:13;;;;;;;10.05;5.88;;;14.40;99.90;;;;;;4950600;28;20669;-50
2022/05/16 06:35:39;;;;;;;13.73;5.63;;;14.60;99.90;;;;;;4954275;29;20027;-50
2022/05/16 06:38:09;;;;;;;15.10;5.95;;;14.60;99.90;;;;;;4953750;29;20067;-51
2022/05/16 06:40:35;;;;;;;14.90;5.45;;;14.70;99.90;;;;;;4954588;29;20541;-51
2022/05/16 06:43:01;;;;;;;11.07;5.97;;;14.80;99.90;;;;;;4954015;29;20023;-51
2022/05/16 06:45:27;;;;;;;13.60;5.72;;;14.90;99.90;;;;;;4948398;28;20383;-51
2022/05/16 06:47:52;;;;;;;15.02;6.00;;;14.90;99.90;;;;;;4973112;28;20038;-52
2022/05/16 06:50:18;;;;;;;10.88;4.93;;;15.10;99.90;;;;;;4973581;28;20045;-51
2022/05/16 06:52:43;;;;;;;12.13;5.70;;;15.30;99.90;;;;;;4973009;28;20121;-50
2022/05/16 06:55:10;;;;;;;14.25;5.63;;;15.30;99.90;;;;;;4973193;28;20066;-52
2022/05/16 06:57:36;;;;;;;14.95;6.53;;;15.40;99.90;;;;;;4972627;28;20072;-51
2022/05/16 07:00:04;;;;;;;17.77;6.72;;;15.50;99.90;;;;;;4973654;28;20023;-52
2022/05/16 07:02:30;;;;;;;18.08;8.55;;;15.70;99.90;;;;;;4971644;28;20044;-52
2022/05/16 07:04:57;;;;;;;15.40;5.97;;;15.80;99.90;;;;;;4973141;28;20022;-52
2022/05/16 07:07:23;;;;;;;11.65;4.63;;;15.90;99.90;;;;;;4972889;28;20478;-52
2022/05/16 07:09:48;;;;;;;16.42;5.80;;;15.80;99.90;;;;;;4972815;28;20058;-51
2022/05/16 07:12:14;;;;;;;15.15;6.00;;;16.20;99.90;;;;;;4972133;28;20070;-52
2022/05/16 07:14:40;;;;;;;15.43;6.30;;;16.40;99.90;;;;;;4953362;29;20027;-52
2022/05/16 07:17:06;;;;;;;13.88;6.53;;;16.40;99.90;;;;;;4935323;29;20047;-52
2022/05/16 07:19:36;;;;;;;14.10;5.93;;;16.50;99.00;;;;;;4953950;29;20039;-51
2022/05/16 07:22:14;;;;;;;61.88;11.45;;;16.50;98.00;;;;;;4953052;29;20031;-51
2022/05/16 07:24:41;;;;;;;16.48;5.13;;;16.70;95.30;;;;;;4957301;28;20105;-51
2022/05/16 07:29:51;;;;;;;26.98;4.35;;;16.80;92.00;;;;;;4963416;28;20126;-51
2022/05/16 07:32:17;;;;;;;11.10;3.17;;;16.90;89.60;;;;;;4960859;28;20531;-51
2022/05/16 07:34:43;;;;;;;9.73;3.60;;;17.00;88.50;;;;;;4961624;28;20022;-52
2022/05/16 07:37:09;;;;;;;12.05;3.25;;;17.00;90.70;;;;;;4962150;28;20042;-52
2022/05/16 07:39:35;;;;;;;7.28;3.60;;;17.30;90.70;;;;;;4962602;28;20085;-51
2022/05/16 07:42:03;;;;;;;10.98;4.03;;;17.30;90.00;;;;;;4944562;28;20514;-50
2022/05/16 07:44:29;;;;;;;80.05;8.55;;;17.30;86.50;;;;;;4959886;28;20535;-51
2022/05/16 07:46:55;;;;;;;8.73;3.33;;;17.40;88.40;;;;;;4962061;28;20062;-51
2022/05/16 07:49:21;;;;;;;8.45;3.15;;;17.60;86.20;;;;;;4961272;28;20659;-51
2022/05/16 07:51:46;;;;;;;10.15;3.60;;;17.60;84.30;;;;;;4960459;28;20037;-52
2022/05/16 07:54:12;;;;;;;7.05;2.90;;;17.60;78.90;;;;;;4962681;28;20057;-51
2022/05/16 07:56:39;;;;;;;10.57;2.95;;;17.60;80.70;;;;;;4962572;28;20055;-51
2022/05/16 07:59:06;;;;;;;10.37;2.10;;;17.60;82.30;;;;;;4960762;28;20472;-50
2022/05/16 08:01:32;;;;;;;5.43;2.38;;;17.60;85.30;;;;;;4962173;28;20033;-51
2022/05/16 08:03:58;;;;;;;7.25;2.05;;;17.70;81.80;;;;;;4960517;28;20031;-50
2022/05/16 08:06:27;;;;;;;9.82;1.92;;;17.80;81.40;;;;;;4960998;28;20359;-51
2022/05/16 08:11:37;;;;;;;6.53;1.70;;;18.10;80.00;;;;;;4960742;28;20039;-51
2022/05/16 08:14:03;;;;;;;6.85;2.15;;;18.10;79.90;;;;;;4960593;28;20430;-50
2022/05/16 08:16:29;;;;;;;4.32;1.23;;;18.20;80.80;;;;;;4961636;28;20585;-51
2022/05/16 08:18:55;;;;;;;7.55;1.10;;;18.30;72.90;;;;;;4954561;28;20038;-51
2022/05/16 08:21:20;;;;;;;7.57;1.40;;;18.60;79.60;;;;;;4960853;28;20019;-52
2022/05/16 08:23:46;;;;;;;3.17;1.23;;;18.80;78.70;;;;;;4959592;28;20668;-51
2022/05/16 08:26:12;;;;;;;5.65;1.23;;;18.80;74.40;;;;;;4961489;28;20023;-51
2022/05/16 08:28:39;;;;;;;3.13;0.90;;;19.00;71.80;;;;;;4960300;28;20078;-51
2022/05/16 08:31:05;;;;;;;5.63;1.25;;;18.70;65.90;;;;;;4959754;28;20515;-51
2022/05/16 08:33:33;;;;;;;8.80;1.90;;;18.70;69.20;;;;;;4959066;28;20419;-51
2022/05/16 08:41:30;;;;;;;5.22;1.98;;;19.10;69.90;;;;;;4960294;28;20034;-51
2022/05/16 08:44:07;;;;;;;3.88;1.60;;;19.00;66.20;;;;;;4959564;28;20031;-51
2022/05/16 08:46:44;;;;;;;3.43;1.43;;;19.30;67.80;;;;;;4958810;28;20047;-52
2022/05/16 08:49:26;;;;;;;4.22;1.58;;;19.40;73.40;;;;;;4959465;28;20030;-51
2022/05/16 08:52:03;;;;;;;6.72;1.52;;;19.70;68.80;;;;;;4959081;28;20439;-51
2022/05/16 08:54:37;;;;;;;6.15;1.63;;;19.90;67.60;;;;;;4956629;28;20019;-51
2022/05/16 08:57:06;;;;;;;10.75;1.90;;;19.80;66.30;;;;;;4950114;28;20171;-52
2022/05/16 08:59:35;;;;;;;9.55;2.47;;;19.90;68.80;;;;;;4950565;29;20426;-52
2022/05/16 09:02:06;;;;;;;8.13;2.38;;;20.10;66.40;;;;;;4950215;29;20034;-52
2022/05/16 09:04:46;;;;;;;7.80;1.88;;;20.10;66.00;;;;;;4950427;29;20106;-52
2022/05/16 09:07:22;;;;;;;5.80;1.60;;;20.20;64.00;;;;;;4949372;28;20031;-51
2022/05/16 09:10:01;;;;;;;5.57;1.60;;;20.00;63.20;;;;;;4951168;29;20086;-52
2022/05/16 09:13:06;;;;;;;7.60;2.78;;;20.00;64.70;;;;;;4955604;28;20031;-51
2022/05/16 09:16:05;;;;;;;7.35;2.08;;;20.00;65.20;;;;;;4917837;28;20036;-52
2022/05/16 09:18:47;;;;;;;5.35;1.65;;;20.00;63.10;;;;;;4932095;29;20062;-51
2022/05/16 09:21:19;;;;;;;3.13;1.27;;;20.10;62.00;;;;;;4959344;28;20031;-51
2022/05/16 09:23:59;;;;;;;7.22;1.63;;;20.20;63.70;;;;;;4963443;28;20033;-51
2022/05/16 09:26:43;;;;;;;5.63;1.67;;;20.10;60.40;;;;;;4945291;29;20031;-52
2022/05/16 09:29:31;;;;;;;4.38;1.42;;;20.10;60.00;;;;;;4954284;28;20546;-50
2022/05/16 09:32:22;;;;;;;7.07;2.40;;;20.20;59.30;;;;;;4954682;28;20039;-49
2022/05/16 09:34:48;;;;;;;7.30;2.80;;;20.20;60.50;;;;;;4948156;29;20031;-51
2022/05/16 09:37:13;;;;;;;5.20;1.90;;;20.50;62.00;;;;;;4951590;29;20118;-50
2022/05/16 09:39:39;;;;;;;15.23;3.45;;;20.70;65.20;;;;;;4953420;29;20033;-50
2022/05/16 09:42:14;;;;;;;11.48;2.47;;;20.90;62.30;;;;;;4951577;29;20039;-49
2022/05/16 09:44:44;;;;;;;6.80;2.50;;;20.70;59.80;;;;;;4949292;29;20058;-51
2022/05/16 09:47:28;;;;;;;8.80;2.38;;;20.80;59.00;;;;;;4950848;29;20110;-49
2022/05/16 09:50:02;;;;;;;5.72;2.75;;;20.70;60.00;;;;;;4951454;29;20031;-49
2022/05/16 09:52:30;;;;;;;12.15;2.58;;;21.00;60.20;;;;;;4950579;29;20035;-51
2022/05/16 09:55:09;;;;;;;8.50;2.63;;;21.10;59.70;;;;;;4951384;29;20114;-51
2022/05/16 09:57:46;;;;;;;8.75;2.67;;;21.50;62.30;;;;;;4951096;29;20043;-50
2022/05/16 10:00:21;;;;;;;12.95;2.90;;;21.00;58.80;;;;;;4950581;29;20031;-49
2022/05/16 10:03:16;;;;;;;15.27;2.67;;;20.60;59.20;;;;;;4950164;29;20399;-49
2022/05/16 10:05:47;;;;;;;8.18;3.10;;;20.60;61.30;;;;;;4923220;29;20031;-51
2022/05/16 10:08:22;;;;;;;6.28;2.60;;;20.90;58.30;;;;;;4957322;28;20043;-49
2022/05/16 10:10:48;;;;;;;5.55;2.42;;;21.10;58.10;;;;;;4974356;28;20046;-50
2022/05/16 10:13:16;;;;;;;8.00;2.10;;;21.60;59.50;;;;;;4953971;28;20035;-52
2022/05/16 10:15:43;;;;;;;8.48;2.53;;;21.70;58.40;;;;;;4954889;29;20043;-50
2022/05/16 10:18:16;;;;;;;8.23;2.72;;;21.60;55.30;;;;;;4954737;29;20050;-50
2022/05/16 10:20:46;;;;;;;21.67;3.70;;;21.90;54.20;;;;;;4954367;29;20090;-50
2022/05/16 10:23:29;;;;;;;7.57;3.42;;;21.40;54.90;;;;;;4953337;29;20038;-50
2022/05/16 10:25:59;;;;;;;8.43;3.08;;;21.50;57.90;;;;;;4953062;29;20554;-50
2022/05/16 10:28:30;;;;;;;13.73;3.03;;;21.80;56.50;;;;;;4954480;29;20035;-52
2022/05/16 10:33:46;;;;;;;7.72;2.83;;;21.60;56.20;;;;;;4953900;29;20196;-50
2022/05/16 10:36:30;;;;;;;8.48;2.50;;;21.30;58.20;;;;;;4954923;29;20034;-52
2022/05/16 10:39:07;;;;;;;8.13;2.20;;;22.10;58.10;;;;;;4952145;29;20090;-52
2022/05/16 10:41:43;;;;;;;4.88;2.25;;;22.50;56.80;;;;;;4941193;29;20115;-49
2022/05/16 10:44:19;;;;;;;3.92;2.38;;;22.00;55.40;;;;;;4953950;29;20023;-50
2022/05/16 10:46:54;;;;;;;9.02;3.92;;;21.90;55.70;;;;;;4953831;29;20125;-50
2022/05/16 10:49:21;;;;;;;7.80;2.58;;;21.50;55.40;;;;;;4952415;29;20106;-51
2022/05/16 10:51:57;;;;;;;10.95;3.17;;;21.80;57.20;;;;;;4953915;29;20039;-53
2022/05/16 10:54:29;;;;;;;8.88;3.13;;;22.00;55.60;;;;;;4943101;28;20525;-51
2022/05/16 10:56:55;;;;;;;7.10;2.53;;;22.00;55.60;;;;;;4960887;28;20087;-50
2022/05/16 10:59:59;;;;;;;6.55;3.08;;;22.30;55.20;;;;;;4953249;29;20430;-49
2022/05/16 11:03:03;;;;;;;12.63;3.42;;;22.60;56.80;;;;;;4952230;29;20163;-51
2022/05/16 11:05:43;;;;;;;10.25;2.80;;;23.00;54.00;;;;;;4951708;29;20023;-51
2022/05/16 11:08:32;;;;;;;7.97;2.33;;;22.30;54.70;;;;;;4955877;28;20027;-50
2022/05/16 11:11:36;;;;;;;13.18;2.67;;;22.10;57.40;;;;;;4972296;28;20035;-51
2022/05/16 11:14:09;;;;;;;6.70;3.75;;;21.90;55.00;;;;;;4971238;28;20479;-51
2022/05/16 11:16:38;;;;;;;11.48;2.78;;;22.50;58.10;;;;;;4971098;28;20057;-51
2022/05/16 11:19:25;;;;;;;12.85;3.05;;;22.40;55.30;;;;;;4969274;28;20070;-50
2022/05/16 11:22:14;;;;;;;8.35;2.60;;;22.80;55.50;;;;;;4970146;28;20120;-51
2022/05/16 11:25:04;;;;;;;9.90;2.42;;;22.10;54.90;;;;;;4971686;28;20058;-50
2022/05/16 11:28:08;;;;;;;6.60;2.97;;;22.70;56.70;;;;;;4971929;28;20410;-51
2022/05/16 11:30:40;;;;;;;9.70;2.55;;;22.50;54.60;;;;;;4972180;28;20038;-49
2022/05/16 11:33:36;;;;;;;9.35;2.65;;;22.80;57.10;;;;;;4972121;28;20089;-52
2022/05/16 11:36:27;;;;;;;4.15;2.10;;;22.70;54.10;;;;;;4972268;28;20106;-51
2022/05/16 11:39:06;;;;;;;8.98;3.28;;;22.70;54.40;;;;;;4958059;28;20065;-50
2022/05/16 11:41:48;;;;;;;9.35;2.75;;;22.70;54.40;;;;;;4972203;28;20037;-52
2022/05/16 11:44:26;;;;;;;7.47;2.47;;;23.20;54.90;;;;;;4972187;28;20038;-50
2022/05/16 11:47:08;;;;;;;5.43;2.38;;;23.50;54.60;;;;;;4971737;28;20146;-52
2022/05/16 11:49:47;;;;;;;8.02;2.70;;;23.40;54.30;;;;;;4972049;28;20038;-52
2022/05/16 11:52:27;;;;;;;12.90;3.17;;;23.80;54.50;;;;;;4972098;28;20018;-50
2022/05/16 12:01:33;;;;;;;5.47;2.55;;;23.80;53.20;;;;;;4883427;29;20040;-52
2022/05/16 12:04:11;;;;;;;8.00;1.83;;;23.70;52.30;;;;;;4948914;28;20038;-51
2022/05/16 12:06:53;;;;;;;10.80;2.78;;;24.20;49.80;;;;;;4962523;28;20090;-50
2022/05/16 12:09:31;;;;;;;6.75;1.60;;;23.80;47.50;;;;;;4955680;28;20031;-52
2022/05/16 12:12:08;;;;;;;5.05;1.30;;;24.00;47.10;;;;;;4960900;28;20027;-51
2022/05/16 12:14:36;;;;;;;6.45;2.25;;;23.40;47.70;;;;;;4944160;28;20015;-52
2022/05/16 12:17:07;;;;;;;11.07;2.10;;;24.00;49.60;;;;;;4952267;29;20032;-52
2022/05/16 12:19:42;;;;;;;6.15;1.50;;;24.10;48.30;;;;;;4953008;29;20027;-51
2022/05/16 12:22:33;;;;;;;3.60;1.30;;;24.70;51.40;;;;;;4940605;29;20160;-50
2022/05/16 12:25:10;;;;;;;7.85;1.48;;;25.00;48.50;;;;;;4941843;29;20035;-49
2022/05/16 12:27:44;;;;;;;14.18;1.92;;;25.20;46.00;;;;;;4948901;29;20031;-50
2022/05/16 12:30:28;;;;;;;6.57;1.40;;;24.80;46.40;;;;;;4948512;29;20023;-49
2022/05/16 12:32:56;;;;;;;3.30;1.27;;;25.10;45.40;;;;;;4948384;29;20024;-52
2022/05/16 12:35:27;;;;;;;7.25;2.13;;;24.60;44.20;;;;;;4950580;29;20019;-52
2022/05/16 12:37:57;;;;;;;7.78;1.20;;;24.00;46.40;;;;;;4948476;29;20499;-51
2022/05/16 12:40:51;;;;;;;5.05;1.27;;;24.30;45.90;;;;;;4950425;29;20089;-51
2022/05/16 12:43:57;;;;;;;6.25;1.65;;;24.70;45.90;;;;;;4949120;29;20038;-50
2022/05/16 12:46:46;;;;;;;4.47;1.38;;;24.80;46.30;;;;;;4949648;29;20051;-52
2022/05/16 12:49:49;;;;;;;4.78;1.88;;;25.50;46.50;;;;;;4947601;29;20030;-51
2022/05/16 12:52:47;;;;;;;11.35;1.85;;;25.70;45.80;;;;;;4941024;29;20042;-52
2022/05/16 12:55:48;;;;;;;6.43;2.00;;;25.30;44.00;;;;;;4948470;29;20027;-50
2022/05/16 12:59:07;;;;;;;7.05;1.35;;;25.90;44.30;;;;;;4948619;29;20051;-50
2022/05/16 13:01:41;;;;;;;3.70;1.13;;;26.00;46.20;;;;;;4877584;29;20130;-52
2022/05/16 13:04:25;;;;;;;7.47;1.40;;;26.20;43.80;;;;;;4953129;28;20592;-50
2022/05/16 13:07:10;;;;;;;4.28;1.55;;;26.40;44.40;;;;;;4950693;29;20030;-50
2022/05/16 13:09:54;;;;;;;3.03;1.10;;;26.20;44.00;;;;;;4948353;29;20468;-52
2022/05/16 13:12:57;;;;;;;6.03;1.10;;;26.10;45.00;;;;;;4948112;29;20027;-51
2022/05/16 13:15:46;;;;;;;3.67;1.23;;;26.30;43.90;;;;;;4958019;28;20027;-49
2022/05/16 13:18:18;;;;;;;7.20;1.30;;;25.70;42.40;;;;;;4950034;29;20031;-49
2022/05/16 13:20:45;;;;;;;5.78;1.35;;;25.90;44.70;;;;;;4948683;29;20027;-49
2022/05/16 13:23:13;;;;;;;4.32;1.52;;;26.20;45.50;;;;;;4958134;28;20054;-50
2022/05/16 13:31:08;;;;;;;4.60;1.50;;;26.80;42.00;;;;;;4947653;29;20376;-52
2022/05/16 13:33:37;;;;;;;6.50;1.05;;;26.70;41.70;;;;;;4949967;29;20020;-51
2022/05/16 13:36:21;;;;;;;4.65;1.83;;;27.10;42.90;;;;;;4950760;29;20530;-50
2022/05/16 13:38:57;;;;;;;5.13;1.60;;;27.70;42.20;;;;;;4967014;28;20418;-50
2022/05/16 13:41:26;;;;;;;7.03;1.15;;;27.30;40.40;;;;;;4968944;28;20054;-51
2022/05/16 13:43:53;;;;;;;3.88;1.08;;;27.30;41.90;;;;;;4968866;28;20128;-49